Time;durP1;ratioP1;P1;durP2;ratioP2;P2;SDS_P1;SDS_P2;PMS_P1;PMS_P2;Temp;Humidity;BMP_temperature;BMP_pressure;BME280_temperature;BME280_humidity;BME280_pressure;Samples;Min_cycle;Max_cycle;Signal;HPM_P1;HPM_P2
2022/02/22 00:00:05;;;;;;;20.98;3.88;;;7.50;77.90;;;;;;5009254;28;20091;-74
2022/02/22 00:02:30;;;;;;;17.98;3.72;;;7.60;77.90;;;;;;5010030;28;20088;-74
2022/02/22 00:04:56;;;;;;;18.70;4.22;;;7.50;77.80;;;;;;5013963;28;20480;-73
2022/02/22 00:07:21;;;;;;;21.52;4.35;;;7.50;77.80;;;;;;5008158;28;20729;-74
2022/02/22 00:09:47;;;;;;;13.88;3.33;;;7.50;77.70;;;;;;5008810;28;20092;-74
2022/02/22 00:12:13;;;;;;;16.35;3.65;;;7.50;77.70;;;;;;5017081;28;20378;-74
2022/02/22 00:14:38;;;;;;;14.52;2.92;;;7.50;77.70;;;;;;5016557;28;20053;-74
2022/02/22 00:17:04;;;;;;;23.67;4.05;;;7.60;77.70;;;;;;5017493;28;20025;-74
2022/02/22 00:19:30;;;;;;;17.08;3.72;;;7.60;77.60;;;;;;5008954;28;20026;-75
2022/02/22 00:21:56;;;;;;;24.00;4.38;;;7.50;77.50;;;;;;5013651;28;20046;-75
2022/02/22 00:24:22;;;;;;;21.73;4.45;;;7.50;77.50;;;;;;5012871;28;20064;-73
2022/02/22 00:26:48;;;;;;;18.65;3.47;;;7.50;77.50;;;;;;5007653;28;20173;-74
2022/02/22 00:29:14;;;;;;;17.33;3.38;;;7.50;77.60;;;;;;5010149;28;20163;-73
2022/02/22 00:31:40;;;;;;;20.27;4.13;;;7.50;77.60;;;;;;5017027;28;20083;-74
2022/02/22 00:34:06;;;;;;;16.63;4.00;;;7.50;77.50;;;;;;5014247;28;20100;-74
2022/02/22 00:36:35;;;;;;;20.38;3.20;;;7.50;77.60;;;;;;5019065;28;20059;-74
2022/02/22 00:39:04;;;;;;;19.42;3.38;;;7.40;77.50;;;;;;5010049;28;20022;-74
2022/02/22 00:41:30;;;;;;;18.40;3.53;;;7.40;77.60;;;;;;5006025;28;20397;-74
2022/02/22 00:43:56;;;;;;;17.65;3.40;;;7.40;77.70;;;;;;5009150;28;20022;-74
2022/02/22 00:46:21;;;;;;;14.68;3.45;;;7.40;77.70;;;;;;5013187;28;20080;-74
2022/02/22 00:48:47;;;;;;;14.70;3.17;;;7.40;77.80;;;;;;5012700;28;20061;-73
2022/02/22 00:51:12;;;;;;;18.88;3.78;;;7.40;77.80;;;;;;5017363;28;20040;-74
2022/02/22 00:53:38;;;;;;;16.13;3.58;;;7.40;77.80;;;;;;5009838;28;20030;-74
2022/02/22 00:56:04;;;;;;;16.13;3.13;;;7.40;77.80;;;;;;5002727;28;20022;-74
2022/02/22 00:58:29;;;;;;;13.18;3.40;;;7.40;77.90;;;;;;5006684;28;20152;-73
2022/02/22 01:00:55;;;;;;;15.43;3.40;;;7.40;77.90;;;;;;5006614;28;20022;-74
2022/02/22 01:03:20;;;;;;;18.85;3.88;;;7.30;78.00;;;;;;5003003;28;20026;-74
2022/02/22 01:05:46;;;;;;;14.95;3.05;;;7.30;78.10;;;;;;5007155;28;20446;-73
2022/02/22 01:08:11;;;;;;;20.33;4.05;;;7.30;78.20;;;;;;5001949;28;20089;-74
2022/02/22 01:10:37;;;;;;;15.43;3.70;;;7.30;78.30;;;;;;4999187;28;20068;-74
2022/02/22 01:13:03;;;;;;;15.63;3.15;;;7.30;78.40;;;;;;5003845;28;20244;-74
2022/02/22 01:15:29;;;;;;;17.65;3.53;;;7.20;78.40;;;;;;5003328;28;20052;-74
2022/02/22 01:17:55;;;;;;;12.48;2.92;;;7.20;78.50;;;;;;4999216;28;20022;-73
2022/02/22 01:20:20;;;;;;;21.30;3.38;;;7.20;78.60;;;;;;5005971;28;20504;-73
2022/02/22 01:22:47;;;;;;;19.20;3.22;;;7.20;78.70;;;;;;4996401;28;20389;-74
2022/02/22 01:25:13;;;;;;;14.45;2.90;;;7.20;78.70;;;;;;5002784;28;20559;-73
2022/02/22 01:27:39;;;;;;;18.90;3.60;;;7.20;78.70;;;;;;5003545;28;20034;-72
2022/02/22 01:30:07;;;;;;;13.30;3.25;;;7.20;78.80;;;;;;5007219;28;20712;-74
2022/02/22 01:32:33;;;;;;;14.48;3.25;;;7.20;78.80;;;;;;5011769;28;20096;-74
2022/02/22 01:34:59;;;;;;;16.08;3.30;;;7.10;78.90;;;;;;5010168;28;20027;-72
2022/02/22 01:37:24;;;;;;;16.27;3.72;;;7.10;78.90;;;;;;5011046;28;20052;-74
2022/02/22 01:39:50;;;;;;;17.63;3.33;;;7.10;78.90;;;;;;5007751;28;20076;-73
2022/02/22 01:42:15;;;;;;;21.23;3.60;;;7.10;78.90;;;;;;5012092;28;20120;-73
2022/02/22 01:44:41;;;;;;;23.23;4.00;;;7.10;79.00;;;;;;5008893;28;20108;-73
2022/02/22 01:47:07;;;;;;;19.15;3.45;;;7.00;79.00;;;;;;5008801;28;20446;-73
2022/02/22 01:49:34;;;;;;;16.40;3.58;;;7.00;79.10;;;;;;5009289;28;20030;-73
2022/02/22 01:52:02;;;;;;;19.60;3.33;;;7.00;79.30;;;;;;5008681;28;20164;-74
2022/02/22 01:54:28;;;;;;;19.65;3.72;;;6.90;79.30;;;;;;5011963;28;20022;-74
2022/02/22 01:56:54;;;;;;;17.30;3.78;;;6.90;79.40;;;;;;5008306;28;20460;-74
2022/02/22 01:59:21;;;;;;;14.40;3.00;;;6.80;79.50;;;;;;5010812;28;20053;-73
2022/02/22 02:01:47;;;;;;;10.38;2.60;;;6.80;79.50;;;;;;5007076;28;20484;-74
2022/02/22 02:04:13;;;;;;;21.77;4.88;;;6.80;79.60;;;;;;4999700;28;20022;-74
2022/02/22 02:06:39;;;;;;;13.68;2.95;;;6.80;79.70;;;;;;5006020;28;20496;-74
2022/02/22 02:09:06;;;;;;;17.05;3.60;;;6.70;79.80;;;;;;5008934;28;20128;-73
2022/02/22 02:12:03;;;;;;;17.80;3.75;;;6.70;79.90;;;;;;5003947;28;20025;-73
2022/02/22 02:14:29;;;;;;;20.15;3.55;;;6.60;80.00;;;;;;5004897;28;20118;-73
2022/02/22 02:16:56;;;;;;;17.63;3.95;;;6.60;80.00;;;;;;5004053;28;20420;-74
2022/02/22 02:19:22;;;;;;;19.63;3.42;;;6.50;80.00;;;;;;5011035;28;20048;-74
2022/02/22 02:21:49;;;;;;;14.55;3.08;;;6.60;80.10;;;;;;5006677;28;20093;-74
2022/02/22 02:24:24;;;;;;;13.00;2.80;;;6.50;80.10;;;;;;5009564;28;20025;-74
2022/02/22 02:26:51;;;;;;;10.60;2.67;;;6.50;80.20;;;;;;5004474;28;20592;-73
2022/02/22 02:29:20;;;;;;;11.45;2.78;;;6.50;80.30;;;;;;5009763;28;20091;-75
2022/02/22 02:31:47;;;;;;;14.75;3.25;;;6.50;80.30;;;;;;5021560;28;20559;-74
2022/02/22 02:34:15;;;;;;;18.10;3.30;;;6.50;80.30;;;;;;5005323;28;20472;-74
2022/02/22 02:36:43;;;;;;;12.20;2.70;;;6.40;80.30;;;;;;5007433;28;20018;-74
2022/02/22 02:39:11;;;;;;;10.05;2.90;;;6.40;80.40;;;;;;5008621;28;20087;-74
2022/02/22 02:41:37;;;;;;;7.10;2.15;;;6.40;80.40;;;;;;5006784;28;20018;-74
2022/02/22 02:44:14;;;;;;;12.77;2.72;;;6.40;80.50;;;;;;5008045;28;20018;-74
2022/02/22 02:46:41;;;;;;;14.27;2.42;;;6.40;80.60;;;;;;5007884;28;20076;-74
2022/02/22 02:49:07;;;;;;;18.70;3.85;;;6.40;80.60;;;;;;5007259;28;20041;-74
2022/02/22 02:51:33;;;;;;;15.90;3.28;;;6.40;80.60;;;;;;5002978;28;20091;-73
2022/02/22 02:53:59;;;;;;;14.70;3.08;;;6.30;80.70;;;;;;5009006;28;20050;-74
2022/02/22 02:56:25;;;;;;;12.15;2.70;;;6.30;80.80;;;;;;5004303;28;20026;-73
2022/02/22 02:58:52;;;;;;;15.55;3.25;;;6.30;80.90;;;;;;5007587;28;20128;-73
2022/02/22 03:01:18;;;;;;;11.13;3.05;;;6.20;80.90;;;;;;5004325;28;20123;-74
2022/02/22 03:03:44;;;;;;;14.07;2.65;;;6.20;81.00;;;;;;5009754;28;20420;-74
2022/02/22 03:06:10;;;;;;;14.68;2.88;;;6.30;81.20;;;;;;5007577;28;20045;-74
2022/02/22 03:08:35;;;;;;;15.30;3.40;;;6.20;81.10;;;;;;5007023;28;20121;-73
2022/02/22 03:11:01;;;;;;;15.65;2.97;;;6.20;81.10;;;;;;5003688;28;20907;-73
2022/02/22 03:13:26;;;;;;;19.75;3.53;;;6.20;81.20;;;;;;5007046;28;20032;-73
2022/02/22 03:15:52;;;;;;;15.80;3.33;;;6.20;81.30;;;;;;5009766;28;20030;-73
2022/02/22 03:18:17;;;;;;;17.55;3.28;;;6.10;81.30;;;;;;5004885;28;20017;-73
2022/02/22 03:20:43;;;;;;;11.85;2.80;;;6.10;81.40;;;;;;5001301;28;20014;-73
2022/02/22 03:23:08;;;;;;;16.55;3.38;;;6.10;81.50;;;;;;5002266;28;20556;-73
2022/02/22 03:25:34;;;;;;;17.38;3.35;;;6.10;81.60;;;;;;5009782;28;20586;-72
2022/02/22 03:28:03;;;;;;;11.40;2.85;;;6.00;81.70;;;;;;5004585;28;20482;-72
2022/02/22 03:30:32;;;;;;;12.02;2.70;;;6.10;81.80;;;;;;5008927;28;20464;-72
2022/02/22 03:32:58;;;;;;;9.63;2.50;;;6.00;81.70;;;;;;5005568;28;20474;-73
2022/02/22 03:35:23;;;;;;;17.63;3.40;;;6.00;81.80;;;;;;5009244;28;20126;-72
2022/02/22 03:37:49;;;;;;;13.32;2.92;;;5.90;81.80;;;;;;5008287;28;20029;-73
2022/02/22 03:40:14;;;;;;;15.55;3.20;;;6.00;82.00;;;;;;5006250;28;20104;-73
2022/02/22 03:42:41;;;;;;;17.75;2.97;;;6.00;82.00;;;;;;5009143;28;20104;-73
2022/02/22 03:45:10;;;;;;;13.80;3.03;;;6.00;82.00;;;;;;5008112;28;20049;-73
2022/02/22 03:47:36;;;;;;;12.82;3.65;;;6.00;82.00;;;;;;5007471;28;20021;-73
2022/02/22 03:50:03;;;;;;;13.50;2.88;;;6.00;82.10;;;;;;5001151;28;20022;-74
2022/02/22 03:52:30;;;;;;;12.25;2.40;;;5.90;82.10;;;;;;5005355;28;20080;-72
2022/02/22 03:54:55;;;;;;;11.90;2.63;;;6.00;82.10;;;;;;5006057;28;20034;-72
2022/02/22 03:57:21;;;;;;;17.00;3.30;;;6.00;82.10;;;;;;5004488;28;20032;-73
2022/02/22 03:59:47;;;;;;;15.60;3.10;;;6.00;82.20;;;;;;5008547;28;20078;-72
2022/02/22 04:02:13;;;;;;;15.57;3.35;;;5.90;82.20;;;;;;5011805;28;20030;-73
2022/02/22 04:04:39;;;;;;;15.95;3.55;;;6.00;82.30;;;;;;5008977;28;20405;-73
2022/02/22 04:07:04;;;;;;;17.23;3.30;;;5.90;82.30;;;;;;5006237;28;20034;-72
2022/02/22 04:09:30;;;;;;;14.23;2.90;;;6.00;82.40;;;;;;5010771;28;20034;-73
2022/02/22 04:11:55;;;;;;;14.27;2.97;;;6.00;82.40;;;;;;5008411;28;20026;-72
2022/02/22 04:14:21;;;;;;;16.02;3.47;;;6.00;82.30;;;;;;5007434;28;20113;-73
2022/02/22 04:16:47;;;;;;;16.38;3.00;;;6.00;82.30;;;;;;5001453;28;20084;-74
2022/02/22 04:19:13;;;;;;;13.02;2.95;;;6.00;82.30;;;;;;5007053;28;20500;-73
2022/02/22 04:21:38;;;;;;;15.25;2.95;;;6.00;82.40;;;;;;5006723;28;20026;-73
2022/02/22 04:24:04;;;;;;;13.27;2.80;;;6.00;82.40;;;;;;5005704;28;20030;-73
2022/02/22 04:26:30;;;;;;;17.55;3.10;;;6.00;82.30;;;;;;5008008;28;20044;-73
2022/02/22 04:28:59;;;;;;;13.35;3.00;;;6.00;82.30;;;;;;5004916;28;20030;-73
2022/02/22 04:31:29;;;;;;;17.92;3.28;;;6.00;82.30;;;;;;5012352;28;20041;-73
2022/02/22 04:33:55;;;;;;;14.43;2.95;;;6.00;82.40;;;;;;5001794;28;20385;-73
2022/02/22 04:36:20;;;;;;;17.42;2.92;;;6.00;82.40;;;;;;5008983;28;20041;-73
2022/02/22 04:38:46;;;;;;;11.20;2.50;;;6.00;82.40;;;;;;5001499;28;20492;-74
2022/02/22 04:41:12;;;;;;;10.38;2.65;;;6.00;82.40;;;;;;5006914;28;20737;-73
2022/02/22 04:43:38;;;;;;;14.52;3.00;;;6.00;82.40;;;;;;5009438;28;20088;-74
2022/02/22 04:46:03;;;;;;;14.57;2.95;;;6.00;82.50;;;;;;5002198;28;20050;-74
2022/02/22 04:48:29;;;;;;;18.42;2.80;;;6.00;82.50;;;;;;5007566;28;20077;-74
2022/02/22 04:50:54;;;;;;;11.30;2.72;;;6.00;82.50;;;;;;5004050;28;20076;-73
2022/02/22 04:53:20;;;;;;;12.35;2.58;;;6.00;82.60;;;;;;5006485;28;20117;-74
2022/02/22 04:55:45;;;;;;;17.15;2.90;;;6.00;82.70;;;;;;5004623;28;20025;-73
2022/02/22 04:58:11;;;;;;;11.60;2.30;;;6.00;82.60;;;;;;5006382;28;20598;-73
2022/02/22 05:00:36;;;;;;;19.08;2.90;;;6.00;82.70;;;;;;5008043;28;20040;-72
2022/02/22 05:03:02;;;;;;;16.38;3.20;;;6.00;82.60;;;;;;5004491;28;20041;-73
2022/02/22 05:05:28;;;;;;;14.60;2.58;;;6.00;82.60;;;;;;5011652;28;20033;-73
2022/02/22 05:07:53;;;;;;;12.68;3.30;;;6.00;82.60;;;;;;5007717;28;20399;-72
2022/02/22 05:10:19;;;;;;;13.05;2.55;;;6.00;82.60;;;;;;5018917;28;20037;-72
2022/02/22 05:12:44;;;;;;;10.98;2.33;;;6.00;82.70;;;;;;5010032;28;20627;-74
2022/02/22 05:15:11;;;;;;;15.65;2.80;;;5.90;82.70;;;;;;5011557;28;20369;-73
2022/02/22 05:17:37;;;;;;;13.27;2.92;;;5.90;82.70;;;;;;5003027;28;20136;-73
2022/02/22 05:20:04;;;;;;;7.10;1.77;;;5.90;82.70;;;;;;5011283;28;20083;-72
2022/02/22 05:22:41;;;;;;;8.88;1.77;;;5.90;82.80;;;;;;5010112;28;20048;-72
2022/02/22 05:25:07;;;;;;;8.70;2.80;;;5.90;82.80;;;;;;5006114;28;20029;-73
2022/02/22 05:27:32;;;;;;;14.02;3.00;;;5.90;82.80;;;;;;5008693;28;20029;-73
2022/02/22 05:29:58;;;;;;;8.98;2.25;;;5.80;82.80;;;;;;5008973;28;20396;-74
2022/02/22 05:32:24;;;;;;;9.07;1.98;;;5.90;82.90;;;;;;5008573;28;20038;-73
2022/02/22 05:34:49;;;;;;;10.48;2.25;;;5.80;82.90;;;;;;5006429;28;20468;-73
2022/02/22 05:37:15;;;;;;;16.48;3.83;;;5.80;83.00;;;;;;5007758;28;20038;-73
2022/02/22 05:39:40;;;;;;;15.27;2.85;;;5.80;83.10;;;;;;5009256;28;20021;-74
2022/02/22 05:42:06;;;;;;;16.70;3.53;;;5.80;83.30;;;;;;5011334;28;20061;-73
2022/02/22 05:44:32;;;;;;;12.82;2.72;;;5.70;83.30;;;;;;5011193;28;20036;-73
2022/02/22 05:46:57;;;;;;;17.25;2.78;;;5.70;83.40;;;;;;5008352;28;20113;-73
2022/02/22 05:49:25;;;;;;;14.98;2.75;;;5.70;83.40;;;;;;5010456;28;20041;-73
2022/02/22 05:51:52;;;;;;;18.50;3.28;;;5.70;83.50;;;;;;5009416;28;20018;-73
2022/02/22 05:54:18;;;;;;;17.55;3.00;;;5.70;83.60;;;;;;5008688;28;20026;-74
2022/02/22 05:56:43;;;;;;;12.45;2.60;;;5.70;83.60;;;;;;5009143;28;20044;-73
2022/02/22 05:59:09;;;;;;;15.80;2.33;;;5.70;83.60;;;;;;5008267;28;20432;-73
2022/02/22 06:01:34;;;;;;;18.17;2.90;;;5.70;83.60;;;;;;5007842;28;20036;-73
2022/02/22 06:04:00;;;;;;;13.43;2.80;;;5.70;83.70;;;;;;5010757;28;20088;-73
2022/02/22 06:06:25;;;;;;;14.68;3.10;;;5.70;83.80;;;;;;5009755;28;20030;-73
2022/02/22 06:08:51;;;;;;;13.30;2.70;;;5.70;83.70;;;;;;5007527;28;20041;-73
2022/02/22 06:11:17;;;;;;;14.15;3.00;;;5.70;83.80;;;;;;5010624;28;20124;-73
2022/02/22 06:13:42;;;;;;;10.85;2.22;;;5.70;83.80;;;;;;5010150;28;20061;-73
2022/02/22 06:16:08;;;;;;;15.80;2.72;;;5.70;83.90;;;;;;5011930;28;20030;-73
2022/02/22 06:18:33;;;;;;;15.43;2.55;;;5.70;83.90;;;;;;5005068;28;20034;-73
2022/02/22 06:20:59;;;;;;;9.85;2.40;;;5.70;83.90;;;;;;5011064;28;20108;-73
2022/02/22 06:23:24;;;;;;;15.00;2.75;;;5.70;84.00;;;;;;5004799;28;20029;-73
2022/02/22 06:25:50;;;;;;;11.43;2.47;;;5.80;84.00;;;;;;5010177;28;20033;-73
2022/02/22 06:28:15;;;;;;;16.33;3.28;;;5.70;84.00;;;;;;5006667;28;20036;-73
2022/02/22 06:30:41;;;;;;;15.13;2.78;;;5.80;84.10;;;;;;5007153;28;20065;-73
2022/02/22 06:33:07;;;;;;;10.50;2.30;;;5.80;84.10;;;;;;5007681;28;20029;-73
2022/02/22 06:35:32;;;;;;;8.98;2.03;;;5.80;84.10;;;;;;5004183;28;20034;-72
2022/02/22 06:37:58;;;;;;;9.23;2.33;;;5.80;84.00;;;;;;5009778;28;20066;-73
2022/02/22 06:40:24;;;;;;;9.05;2.67;;;5.70;84.00;;;;;;5007809;28;20041;-72
2022/02/22 06:42:49;;;;;;;17.67;3.22;;;5.80;84.10;;;;;;5010185;28;20436;-73
2022/02/22 06:45:15;;;;;;;11.75;3.08;;;5.80;84.10;;;;;;5009405;28;20504;-72
2022/02/22 06:47:41;;;;;;;11.10;2.70;;;5.80;84.20;;;;;;5007637;28;20033;-72
2022/02/22 06:50:09;;;;;;;10.23;2.75;;;5.90;84.20;;;;;;5007695;28;20496;-72
2022/02/22 06:52:35;;;;;;;12.57;2.90;;;5.80;84.00;;;;;;5006520;28;20034;-72
2022/02/22 06:55:01;;;;;;;15.15;3.47;;;5.80;84.00;;;;;;5008479;28;20519;-72
2022/02/22 06:57:26;;;;;;;13.82;2.92;;;5.80;83.90;;;;;;5002609;28;20054;-72
2022/02/22 06:59:52;;;;;;;9.73;2.53;;;5.80;83.90;;;;;;5003982;28;20030;-72
2022/02/22 07:02:17;;;;;;;14.07;2.70;;;5.80;83.90;;;;;;5006713;28;20159;-73
2022/02/22 07:04:43;;;;;;;16.90;3.28;;;5.70;83.90;;;;;;5009242;28;20710;-77
2022/02/22 07:07:08;;;;;;;12.98;2.88;;;5.70;84.00;;;;;;5008324;28;20041;-78
2022/02/22 07:09:34;;;;;;;13.18;3.10;;;5.70;84.00;;;;;;5008500;28;20073;-72
2022/02/22 07:12:00;;;;;;;15.93;3.40;;;5.70;84.10;;;;;;5014062;28;20052;-72
2022/02/22 07:14:26;;;;;;;8.80;2.35;;;5.70;84.10;;;;;;5003583;28;20076;-72
2022/02/22 07:16:52;;;;;;;17.65;3.47;;;5.70;84.00;;;;;;5005539;28;20026;-72
2022/02/22 07:19:18;;;;;;;14.82;3.20;;;5.80;84.00;;;;;;5007081;28;20025;-72
2022/02/22 07:21:43;;;;;;;14.45;3.20;;;5.80;83.90;;;;;;5003976;28;20115;-72
2022/02/22 07:24:09;;;;;;;11.00;3.05;;;5.90;83.90;;;;;;5003352;28;20640;-72
2022/02/22 07:26:34;;;;;;;13.63;2.90;;;6.00;83.90;;;;;;5007923;28;20026;-72
2022/02/22 07:29:00;;;;;;;10.88;3.03;;;5.90;83.90;;;;;;5006240;28;20041;-72
2022/02/22 07:31:25;;;;;;;11.68;2.28;;;6.00;83.80;;;;;;5005508;28;20022;-72
2022/02/22 07:33:51;;;;;;;11.27;2.50;;;6.00;83.70;;;;;;5005087;28;20486;-73
2022/02/22 07:36:16;;;;;;;12.88;2.67;;;6.00;83.70;;;;;;5003308;28;20050;-72
2022/02/22 07:38:42;;;;;;;12.57;2.88;;;6.00;83.60;;;;;;5008209;28;20080;-72
2022/02/22 07:41:07;;;;;;;12.93;2.83;;;6.00;83.70;;;;;;5004971;28;20621;-72
2022/02/22 07:43:33;;;;;;;15.15;2.72;;;6.00;83.80;;;;;;5008601;28;20034;-73
2022/02/22 07:45:58;;;;;;;10.18;2.95;;;5.90;83.90;;;;;;5004893;28;20113;-72
2022/02/22 07:48:24;;;;;;;8.70;2.28;;;5.90;83.80;;;;;;4999618;28;20030;-72
2022/02/22 07:50:49;;;;;;;12.50;3.25;;;5.90;83.80;;;;;;5009357;28;20033;-73
2022/02/22 07:53:15;;;;;;;14.73;3.25;;;5.90;83.90;;;;;;5006168;28;20021;-75
2022/02/22 07:55:41;;;;;;;19.15;3.45;;;6.00;83.90;;;;;;5009477;28;20029;-72
2022/02/22 07:58:06;;;;;;;16.27;2.97;;;6.00;84.00;;;;;;5003136;28;20025;-73
2022/02/22 08:00:32;;;;;;;7.38;2.10;;;6.00;84.00;;;;;;5006807;28;20051;-73
2022/02/22 08:02:58;;;;;;;16.35;3.25;;;6.10;84.00;;;;;;4999169;28;21855;-73
2022/02/22 08:05:24;;;;;;;12.57;3.17;;;6.20;83.90;;;;;;4995894;28;20040;-73
2022/02/22 08:07:49;;;;;;;11.00;2.67;;;6.30;83.90;;;;;;4997277;28;20105;-73
2022/02/22 08:10:15;;;;;;;17.30;2.97;;;6.30;83.70;;;;;;4997427;28;20097;-73
2022/02/22 08:12:41;;;;;;;16.90;3.92;;;6.50;83.60;;;;;;4997053;28;20498;-73
2022/02/22 08:15:08;;;;;;;15.20;3.05;;;6.60;83.30;;;;;;4998376;28;20026;-72
2022/02/22 08:17:33;;;;;;;8.13;2.20;;;6.60;83.20;;;;;;5007001;28;20428;-72
2022/02/22 08:19:59;;;;;;;12.95;3.13;;;6.70;83.20;;;;;;5005098;28;20033;-73
2022/02/22 08:22:25;;;;;;;13.63;3.30;;;6.80;83.10;;;;;;5006061;28;20292;-72
2022/02/22 08:24:51;;;;;;;11.60;2.85;;;6.70;83.00;;;;;;5005535;28;20034;-74
2022/02/22 08:27:19;;;;;;;11.52;2.30;;;6.80;83.10;;;;;;5004657;28;20440;-73
2022/02/22 08:29:44;;;;;;;10.18;2.80;;;6.90;83.20;;;;;;5005139;28;20042;-74
2022/02/22 08:32:10;;;;;;;8.60;2.40;;;6.90;83.20;;;;;;5005414;28;20014;-74
2022/02/22 08:34:36;;;;;;;10.63;2.53;;;7.00;83.20;;;;;;4999156;28;20050;-75
2022/02/22 08:37:01;;;;;;;12.88;3.13;;;7.00;83.00;;;;;;5004890;28;20025;-74
2022/02/22 08:39:27;;;;;;;16.73;4.07;;;7.00;82.90;;;;;;5012505;28;20465;-75
2022/02/22 08:41:53;;;;;;;15.43;3.20;;;7.10;83.00;;;;;;5011462;28;20018;-74
2022/02/22 08:44:18;;;;;;;13.02;3.15;;;7.10;83.00;;;;;;5009116;28;20038;-75
2022/02/22 08:46:44;;;;;;;8.90;2.55;;;7.10;83.00;;;;;;5010096;28;20026;-76
2022/02/22 08:49:10;;;;;;;14.52;3.53;;;7.20;83.00;;;;;;5007940;28;20033;-73
2022/02/22 08:51:35;;;;;;;9.18;2.50;;;7.20;83.00;;;;;;5003260;28;20026;-73
2022/02/22 08:54:02;;;;;;;11.93;3.50;;;7.30;83.00;;;;;;5008531;28;20034;-73
2022/02/22 08:56:28;;;;;;;11.20;3.55;;;7.40;82.90;;;;;;5006257;28;20427;-73
2022/02/22 08:58:54;;;;;;;12.63;3.45;;;7.40;82.80;;;;;;5010702;28;20034;-73
2022/02/22 09:01:20;;;;;;;10.52;3.10;;;7.50;82.80;;;;;;5008788;28;20018;-73
2022/02/22 09:03:46;;;;;;;14.40;3.63;;;7.50;82.70;;;;;;5007533;28;20053;-73
2022/02/22 09:06:12;;;;;;;22.13;5.03;;;7.50;82.60;;;;;;5005191;28;20080;-76
2022/02/22 09:08:37;;;;;;;15.32;4.50;;;7.50;82.60;;;;;;5008965;28;20034;-75
2022/02/22 09:11:03;;;;;;;18.80;5.10;;;7.60;82.70;;;;;;5011979;28;20108;-74
2022/02/22 09:13:28;;;;;;;14.38;4.32;;;7.60;82.60;;;;;;5010254;28;20791;-74
2022/02/22 09:15:54;;;;;;;16.58;5.22;;;7.60;82.70;;;;;;5010739;28;20030;-74
2022/02/22 09:18:20;;;;;;;14.30;4.18;;;7.60;82.80;;;;;;5009677;28;20018;-74
2022/02/22 09:20:46;;;;;;;15.45;4.32;;;7.70;82.80;;;;;;5010821;28;20432;-75
2022/02/22 09:23:12;;;;;;;16.65;4.68;;;7.80;82.70;;;;;;5001425;28;20018;-76
2022/02/22 09:25:37;;;;;;;18.00;5.45;;;7.80;82.60;;;;;;5009535;28;20026;-76
2022/02/22 09:28:07;;;;;;;17.63;5.10;;;7.80;82.50;;;;;;5014342;28;20541;-76
2022/02/22 09:30:34;;;;;;;21.48;5.70;;;7.90;82.60;;;;;;5019549;28;20033;-76
2022/02/22 09:33:01;;;;;;;19.80;5.57;;;7.90;82.40;;;;;;5012137;28;20145;-75
2022/02/22 09:35:27;;;;;;;23.33;5.68;;;7.90;83.00;;;;;;5015469;28;20046;-75
2022/02/22 09:37:55;;;;;;;16.90;4.97;;;8.00;82.30;;;;;;5015422;28;20048;-76
2022/02/22 09:40:21;;;;;;;16.73;5.28;;;8.00;82.40;;;;;;5012704;28;20029;-76
2022/02/22 09:42:47;;;;;;;22.38;6.20;;;8.10;82.30;;;;;;5019490;28;20026;-75
2022/02/22 09:45:14;;;;;;;16.17;5.15;;;8.10;82.00;;;;;;5006998;28;20084;-76
2022/02/22 09:47:41;;;;;;;17.17;4.93;;;8.00;81.80;;;;;;5011823;28;20029;-75
2022/02/22 09:50:07;;;;;;;15.93;4.50;;;8.10;82.00;;;;;;5019484;28;20411;-75
2022/02/22 09:52:34;;;;;;;15.82;4.97;;;8.20;81.90;;;;;;5012612;28;20014;-75
2022/02/22 09:55:01;;;;;;;17.20;4.93;;;8.20;81.80;;;;;;5010809;28;20132;-76
2022/02/22 09:57:26;;;;;;;16.70;4.13;;;8.20;82.20;;;;;;5013061;28;20030;-76
2022/02/22 09:59:52;;;;;;;16.88;4.68;;;8.30;81.60;;;;;;5011314;28;20720;-74
2022/02/22 10:02:21;;;;;;;18.20;4.93;;;8.30;81.50;;;;;;5007117;28;20085;-73
2022/02/22 10:04:48;;;;;;;13.90;3.80;;;8.40;81.40;;;;;;5009749;28;20026;-74
2022/02/22 10:07:15;;;;;;;17.58;4.90;;;8.40;81.30;;;;;;5010449;28;20519;-74
2022/02/22 10:10:01;;;;;;;26.38;5.90;;;8.40;81.10;;;;;;5007597;28;20133;-74
2022/02/22 10:12:31;;;;;;;18.10;4.70;;;8.40;80.80;;;;;;5012077;28;20489;-74
2022/02/22 10:14:58;;;;;;;16.55;4.28;;;8.30;80.60;;;;;;5010824;28;20030;-76
2022/02/22 10:17:25;;;;;;;18.20;4.32;;;8.40;80.70;;;;;;5016158;28;20029;-73
2022/02/22 10:20:03;;;;;;;15.50;4.35;;;8.40;80.70;;;;;;5015768;28;20049;-74
2022/02/22 10:22:30;;;;;;;16.58;4.32;;;8.40;80.70;;;;;;5008171;28;20033;-75
2022/02/22 10:25:08;;;;;;;11.82;3.45;;;8.50;80.70;;;;;;5012793;28;20602;-75
2022/02/22 10:27:51;;;;;;;23.40;5.68;;;8.50;80.70;;;;;;5017467;28;20037;-75
2022/02/22 10:30:26;;;;;;;28.73;5.90;;;8.50;80.40;;;;;;5013220;28;20037;-75
2022/02/22 10:32:52;;;;;;;16.10;4.18;;;8.50;80.30;;;;;;5010786;28;20044;-75
2022/02/22 10:35:28;;;;;;;14.93;4.22;;;8.40;80.40;;;;;;5009700;28;20389;-74
2022/02/22 10:37:54;;;;;;;16.70;4.03;;;8.50;80.80;;;;;;5021250;28;20073;-74
2022/02/22 10:40:31;;;;;;;14.38;3.80;;;8.50;80.80;;;;;;5006861;28;20507;-75
2022/02/22 10:42:57;;;;;;;16.83;4.57;;;8.60;80.80;;;;;;5002590;28;20080;-75
2022/02/22 10:45:24;;;;;;;15.00;4.43;;;8.60;80.80;;;;;;5010934;28;20607;-75
2022/02/22 10:47:50;;;;;;;18.98;4.88;;;8.60;80.90;;;;;;5005328;28;20499;-75
2022/02/22 10:50:26;;;;;;;15.15;3.80;;;8.50;80.80;;;;;;5007985;28;20383;-75
2022/02/22 10:52:52;;;;;;;18.85;4.10;;;8.50;80.90;;;;;;5001476;28;20053;-72
2022/02/22 10:55:18;;;;;;;26.13;5.72;;;8.50;80.80;;;;;;5007964;28;20476;-75
2022/02/22 10:57:46;;;;;;;20.05;5.00;;;8.60;80.60;;;;;;5002648;28;20128;-75
2022/02/22 11:00:12;;;;;;;16.75;4.13;;;8.60;80.50;;;;;;5005750;28;20022;-75
2022/02/22 11:02:38;;;;;;;19.88;5.20;;;8.60;80.40;;;;;;5008067;28;20117;-73
2022/02/22 11:05:05;;;;;;;16.08;4.70;;;8.60;80.30;;;;;;5004556;28;20125;-73
2022/02/22 11:07:31;;;;;;;19.25;5.45;;;8.70;80.40;;;;;;5006168;28;20026;-73
2022/02/22 11:09:58;;;;;;;20.52;5.45;;;8.70;80.40;;;;;;5006786;28;20041;-74
2022/02/22 11:12:35;;;;;;;15.30;4.30;;;8.70;80.30;;;;;;5006423;28;20683;-74
2022/02/22 11:15:05;;;;;;;20.63;3.97;;;8.70;80.20;;;;;;5006678;28;20022;-73
2022/02/22 11:17:31;;;;;;;25.55;5.90;;;8.70;80.20;;;;;;5007154;28;20030;-73
2022/02/22 11:19:56;;;;;;;24.70;5.88;;;8.70;80.00;;;;;;5009292;28;20030;-72
2022/02/22 11:22:24;;;;;;;20.10;4.80;;;8.70;79.90;;;;;;5011649;28;20030;-73
2022/02/22 11:24:59;;;;;;;19.15;4.32;;;8.70;79.90;;;;;;5009210;28;20025;-74
2022/02/22 11:27:33;;;;;;;19.67;5.28;;;8.70;79.80;;;;;;5008710;28;20112;-74
2022/02/22 11:30:04;;;;;;;16.50;4.70;;;8.80;79.90;;;;;;5009364;28;20038;-74
2022/02/22 11:32:30;;;;;;;26.48;6.15;;;8.80;80.50;;;;;;5008410;28;20358;-74
2022/02/22 11:35:08;;;;;;;13.30;3.50;;;8.80;79.70;;;;;;5003602;28;20044;-74
2022/02/22 11:37:33;;;;;;;16.05;4.00;;;8.80;79.80;;;;;;5006695;28;20472;-74
2022/02/22 11:39:59;;;;;;;20.67;4.55;;;8.70;79.80;;;;;;5010568;28;20021;-74
2022/02/22 11:42:31;;;;;;;20.02;5.47;;;8.70;80.10;;;;;;5016060;28;20054;-74
2022/02/22 11:45:07;;;;;;;17.83;4.57;;;8.70;80.50;;;;;;5006466;28;20117;-74
2022/02/22 11:47:35;;;;;;;18.45;5.15;;;8.60;81.00;;;;;;5005342;28;20034;-75
2022/02/22 11:50:13;;;;;;;17.58;5.03;;;8.60;81.60;;;;;;5006701;28;20138;-75
2022/02/22 11:52:45;;;;;;;20.45;5.13;;;8.50;82.80;;;;;;5010427;28;20104;-75
2022/02/22 11:55:19;;;;;;;19.75;5.03;;;8.50;82.60;;;;;;5002377;28;20504;-75
2022/02/22 11:57:53;;;;;;;22.48;5.22;;;8.50;82.80;;;;;;5003824;28;20026;-74
2022/02/22 12:00:31;;;;;;;25.40;6.05;;;8.50;83.20;;;;;;5005865;28;20041;-73
2022/02/22 12:03:12;;;;;;;20.10;5.20;;;8.40;83.60;;;;;;5006287;28;20181;-74
2022/02/22 12:05:44;;;;;;;21.17;5.00;;;8.40;83.80;;;;;;5000927;28;20022;-73
2022/02/22 12:08:17;;;;;;;28.85;6.05;;;8.50;83.80;;;;;;5014262;28;20025;-73
2022/02/22 12:10:52;;;;;;;17.08;4.72;;;8.50;83.90;;;;;;5002887;28;20038;-74
2022/02/22 12:13:21;;;;;;;21.00;5.72;;;8.50;84.00;;;;;;5006474;28;20040;-74
2022/02/22 12:15:47;;;;;;;23.23;5.88;;;8.50;84.20;;;;;;5011613;28;20018;-75
2022/02/22 12:18:22;;;;;;;22.52;5.88;;;8.50;84.40;;;;;;5011320;28;20040;-74
2022/02/22 12:20:49;;;;;;;18.55;5.30;;;8.50;84.60;;;;;;5011686;28;20022;-75
2022/02/22 12:23:26;;;;;;;26.80;7.13;;;8.50;84.50;;;;;;5011379;28;20037;-73
2022/02/22 12:25:54;;;;;;;24.20;6.50;;;8.60;84.90;;;;;;5001252;28;20030;-74
2022/02/22 12:28:23;;;;;;;32.45;7.68;;;8.60;85.00;;;;;;5002194;28;20512;-73
2022/02/22 12:30:50;;;;;;;20.95;5.20;;;8.50;85.30;;;;;;5004326;28;20032;-73
2022/02/22 12:33:17;;;;;;;15.30;5.13;;;8.60;85.50;;;;;;5001685;28;20022;-74
2022/02/22 12:35:46;;;;;;;19.48;5.35;;;8.60;85.40;;;;;;5003007;28;20120;-73
2022/02/22 12:38:23;;;;;;;18.95;6.50;;;8.70;85.60;;;;;;4998815;28;20042;-73
2022/02/22 12:40:51;;;;;;;23.45;6.50;;;8.70;85.70;;;;;;5006044;28;20673;-73
2022/02/22 12:43:17;;;;;;;19.00;6.07;;;8.70;85.80;;;;;;5007936;28;20022;-74
2022/02/22 12:45:53;;;;;;;20.70;6.28;;;8.70;85.90;;;;;;5005488;28;20030;-74